createdAt,value
2019-04-05T00:01:12.200Z,101335.82
2019-04-05T00:03:43.557Z,101331.88
2019-04-05T00:06:15.287Z,101336.71
2019-04-05T00:08:46.539Z,101341.88
2019-04-05T00:11:17.845Z,101340.46
2019-04-05T00:13:49.131Z,101332.12
2019-04-05T00:16:20.428Z,101340.83
2019-04-05T00:18:51.649Z,101338.23
2019-04-05T00:21:22.895Z,101339.56
2019-04-05T00:23:54.223Z,101340.02
2019-04-05T00:26:25.532Z,101343.52
2019-04-05T00:28:56.778Z,101351.36
2019-04-05T00:31:28.163Z,101357.50
2019-04-05T00:33:59.455Z,101353.11
2019-04-05T00:36:30.756Z,101352.64
2019-04-05T00:39:02.039Z,101354.78
2019-04-05T00:41:34.065Z,101355.63
2019-04-05T00:44:05.405Z,101360.48
2019-04-05T00:46:36.708Z,101359.50
2019-04-05T00:49:09.579Z,101365.64
2019-04-05T00:51:40.865Z,101359.97
2019-04-05T00:54:12.223Z,101358.19
2019-04-05T00:56:43.509Z,101359.94
2019-04-05T00:59:14.741Z,101361.69
2019-04-05T01:01:46.083Z,101354.73
2019-04-05T01:04:17.407Z,101359.86
2019-04-05T01:06:48.773Z,101355.87
2019-04-05T01:09:20.099Z,101358.48
2019-04-05T01:11:51.458Z,101355.44
2019-04-05T01:14:23.885Z,101351.45
2019-04-05T01:16:56.138Z,101356.25
2019-04-05T01:19:28.937Z,101351.01
2019-04-05T01:22:00.217Z,101357.05
2019-04-05T01:24:31.456Z,101354.47
2019-04-05T01:27:03.945Z,101356.25
2019-04-05T01:29:35.237Z,101353.13
2019-04-05T01:32:06.549Z,101356.68
2019-04-05T01:34:37.848Z,101357.97
2019-04-05T01:37:10.128Z,101356.22
2019-04-05T01:39:41.343Z,101355.72
2019-04-05T01:42:12.665Z,101355.31
2019-04-05T01:44:43.905Z,101358.37
2019-04-05T01:47:15.141Z,101358.37
2019-04-05T01:49:46.420Z,101361.80
2019-04-05T01:52:17.668Z,101365.76
2019-04-05T01:54:49.933Z,101360.08
2019-04-05T01:57:21.238Z,101357.47
2019-04-05T01:59:52.442Z,101369.28
2019-04-05T02:02:23.793Z,101365.25
2019-04-05T02:04:55.013Z,101368.31
2019-04-05T02:07:26.233Z,101371.77
2019-04-05T02:09:57.446Z,101373.48
2019-04-05T02:12:28.751Z,101382.70
2019-04-05T02:15:01.718Z,101377.84
2019-04-05T02:17:35.807Z,101384.31
2019-04-05T02:20:07.511Z,101382.97
2019-04-05T02:22:38.821Z,101391.62
2019-04-05T02:25:10.177Z,101395.55
2019-04-05T02:27:41.438Z,101399.91
2019-04-05T02:30:12.801Z,101408.06
2019-04-05T02:32:44.123Z,101407.38
2019-04-05T02:35:15.433Z,101408.73
2019-04-05T02:37:46.808Z,101416.55
2019-04-05T02:40:19.223Z,101412.59
2019-04-05T02:42:51.046Z,101420.42
2019-04-05T02:45:22.319Z,101418.09
2019-04-05T02:47:55.444Z,101424.09
2019-04-05T02:50:27.150Z,101426.17
2019-04-05T02:52:59.940Z,101425.73
2019-04-05T02:55:31.484Z,101417.76
2019-04-05T02:58:02.837Z,101422.59
2019-04-05T03:00:34.185Z,101423.83
2019-04-05T03:03:05.515Z,101428.62
2019-04-05T03:05:37.240Z,101426.00
2019-04-05T03:08:08.579Z,101436.47
2019-04-05T03:11:05.134Z,101429.53
2019-04-05T03:13:40.275Z,101440.64
2019-04-05T03:16:20.878Z,101441.52
2019-04-05T03:18:54.733Z,101446.55
2019-04-05T03:21:26.663Z,101453.53
2019-04-05T03:23:59.537Z,101451.78
2019-04-05T03:26:32.399Z,101455.11
2019-04-05T03:29:07.886Z,101456.93
2019-04-05T03:31:40.846Z,101456.23
2019-04-05T03:34:12.163Z,101469.48
2019-04-05T03:36:43.415Z,101469.95
2019-04-05T03:39:14.765Z,101480.83
2019-04-05T03:41:50.056Z,101485.55
2019-04-05T03:44:23.080Z,101482.06
2019-04-05T03:46:57.706Z,101478.55
2019-04-05T03:49:27.558Z,101481.53
2019-04-05T03:51:58.868Z,101487.97
2019-04-05T03:54:31.085Z,101486.78
2019-04-05T03:57:05.306Z,101492.87
2019-04-05T03:59:38.058Z,101490.84
2019-04-05T04:02:10.440Z,101496.20
2019-04-05T04:04:41.664Z,101499.01
2019-04-05T04:07:13.223Z,101507.07
2019-04-05T04:09:45.595Z,101501.55
2019-04-05T04:12:16.910Z,101499.03
2019-04-05T04:14:48.330Z,101502.48
2019-04-05T04:17:20.602Z,101509.50
2019-04-05T04:19:52.913Z,101510.63
2019-04-05T04:22:28.239Z,101513.72
2019-04-05T04:24:59.309Z,101515.01
2019-04-05T04:27:31.580Z,101514.94
2019-04-05T04:30:03.980Z,101518.08
2019-04-05T04:32:35.184Z,101516.28
2019-04-05T04:35:06.544Z,101510.50
2019-04-05T04:37:37.914Z,101513.52
2019-04-05T04:40:09.192Z,101508.34
2019-04-05T04:42:40.561Z,101509.36
2019-04-05T04:45:12.956Z,101504.27
2019-04-05T04:47:44.489Z,101509.59
2019-04-05T04:50:15.734Z,101510.19
2019-04-05T04:52:46.814Z,101516.52
2019-04-05T04:55:18.094Z,101509.42
2019-04-05T04:57:49.302Z,101512.78
2019-04-05T05:00:20.530Z,101509.78
2019-04-05T05:02:51.892Z,101514.16
2019-04-05T05:05:23.006Z,101510.75
2019-04-05T05:07:54.321Z,101503.73
2019-04-05T05:10:25.565Z,101504.55
2019-04-05T05:12:56.916Z,101509.95
2019-04-05T05:15:28.211Z,101505.69
2019-04-05T05:17:59.504Z,101517.23
2019-04-05T05:20:30.850Z,101513.11
2019-04-05T05:23:03.259Z,101509.09
2019-04-05T05:25:34.575Z,101513.10
2019-04-05T05:28:05.813Z,101512.55
2019-04-05T05:30:37.184Z,101512.92
2019-04-05T05:33:08.442Z,101509.25
2019-04-05T05:35:39.686Z,101506.70
2019-04-05T05:38:11.065Z,101513.14
2019-04-05T05:40:42.356Z,101509.81
2019-04-05T05:43:13.806Z,101509.34
2019-04-05T05:45:45.073Z,101508.21
2019-04-05T05:48:16.384Z,101511.11
2019-04-05T05:50:47.842Z,101515.92
2019-04-05T05:53:19.321Z,101515.77
2019-04-05T05:55:52.719Z,101516.83
2019-04-05T05:58:25.752Z,101514.02
2019-04-05T06:00:57.379Z,101515.53
2019-04-05T06:03:28.681Z,101527.08
2019-04-05T06:06:04.617Z,101519.12
2019-04-05T06:08:33.135Z,101512.69
2019-04-05T06:11:04.547Z,101516.87
2019-04-05T06:13:35.962Z,101513.48
2019-04-05T06:16:08.473Z,101517.38
2019-04-05T06:18:40.019Z,101525.95
2019-04-05T06:21:11.816Z,101519.57
2019-04-05T06:23:43.207Z,101519.50
2019-04-05T06:26:14.544Z,101517.92
2019-04-05T06:28:45.997Z,101519.64
2019-04-05T06:31:17.896Z,101522.98
2019-04-05T06:33:49.556Z,101523.33
2019-04-05T06:36:21.215Z,101526.06
2019-04-05T06:38:54.400Z,101529.85
2019-04-05T06:41:26.225Z,101528.25
2019-04-05T06:43:59.349Z,101531.06
2019-04-05T06:46:31.012Z,101529.63
2019-04-05T06:49:02.702Z,101531.55
2019-04-05T06:51:34.283Z,101532.89
2019-04-05T06:54:06.665Z,101530.75
2019-04-05T06:56:39.582Z,101534.47
2019-04-05T06:59:11.442Z,101533.12
2019-04-05T07:01:43.027Z,101536.88
2019-04-05T07:04:14.424Z,101533.94
2019-04-05T07:06:45.809Z,101537.61
2019-04-05T07:09:17.467Z,101537.05
2019-04-05T07:11:48.785Z,101544.69
2019-04-05T07:14:20.083Z,101544.05
2019-04-05T07:16:51.458Z,101543.70
2019-04-05T07:19:22.850Z,101543.31
2019-04-05T07:21:54.184Z,101543.90
2019-04-05T07:24:25.593Z,101544.51
2019-04-05T07:27:00.893Z,101541.03
2019-04-05T07:29:32.265Z,101542.38
2019-04-05T07:32:03.596Z,101542.23
2019-04-05T07:34:34.953Z,101545.48
2019-04-05T07:37:06.319Z,101538.36
2019-04-05T07:39:37.735Z,101541.14
2019-04-05T07:42:09.115Z,101540.73
2019-04-05T07:44:40.493Z,101542.03
2019-04-05T07:47:11.797Z,101545.14
2019-04-05T07:49:44.190Z,101535.78
2019-04-05T07:52:15.502Z,101535.24
2019-04-05T07:54:48.177Z,101540.22
2019-04-05T07:57:19.599Z,101538.92
2019-04-05T07:59:51.227Z,101533.55
2019-04-05T08:02:24.780Z,101545.12
2019-04-05T08:04:56.349Z,101542.73
2019-04-05T08:07:32.888Z,101544.23
2019-04-05T08:10:07.332Z,101543.36
2019-04-05T08:12:41.249Z,101545.61
2019-04-05T08:15:14.621Z,101540.34
2019-04-05T08:17:47.937Z,101545.36
2019-04-05T08:20:20.399Z,101538.28
2019-04-05T08:22:52.044Z,101545.03
2019-04-05T08:25:23.491Z,101543.91
2019-04-05T08:27:54.820Z,101533.47
2019-04-05T08:30:27.165Z,101530.28
2019-04-05T08:32:58.939Z,101530.94
2019-04-05T08:35:30.322Z,101530.59
2019-04-05T08:38:02.035Z,101534.71
2019-04-05T08:40:33.383Z,101525.67
2019-04-05T08:43:05.487Z,101529.44
2019-04-05T08:45:36.834Z,101528.84
2019-04-05T08:48:08.232Z,101531.25
2019-04-05T08:50:39.806Z,101532.52
2019-04-05T08:53:13.495Z,101528.01
2019-04-05T08:55:44.981Z,101529.93
2019-04-05T08:58:16.293Z,101529.81
2019-04-05T09:00:47.737Z,101533.12
2019-04-05T09:06:30.496Z,101528.45
2019-04-05T09:09:01.650Z,101521.87
2019-04-05T09:11:36.858Z,101522.09
2019-04-05T09:14:09.418Z,101524.36
2019-04-05T09:16:40.883Z,101519.40
2019-04-05T09:19:23.838Z,101517.96
2019-04-05T09:21:59.373Z,101516.47
2019-04-05T09:24:30.795Z,101514.55
2019-04-05T09:27:02.125Z,101511.52
2019-04-05T09:29:34.590Z,101511.28
2019-04-05T09:32:07.021Z,101513.48
2019-04-05T09:34:38.320Z,101506.42
2019-04-05T09:37:10.872Z,101504.34
2019-04-05T09:39:42.270Z,101500.14
2019-04-05T09:42:14.609Z,101504.58
2019-04-05T09:44:45.980Z,101507.03
2019-04-05T09:47:17.457Z,101509.59
2019-04-05T09:49:48.890Z,101505.77
2019-04-05T09:52:20.252Z,101503.81
2019-04-05T09:54:51.676Z,101509.80
2019-04-05T09:57:23.419Z,101504.31
2019-04-05T09:59:55.226Z,101509.38
2019-04-05T10:02:26.723Z,101501.65
2019-04-05T10:04:58.300Z,101498.28
2019-04-05T10:07:30.755Z,101499.58
2019-04-05T10:10:02.159Z,101503.48
2019-04-05T10:12:34.738Z,101498.39
2019-04-05T10:15:07.660Z,101493.28
2019-04-05T10:17:39.026Z,101499.61
2019-04-05T10:20:10.451Z,101492.10
2019-04-05T10:22:43.953Z,101496.45
2019-04-05T10:25:15.602Z,101497.84
2019-04-05T10:27:47.113Z,101490.06
2019-04-05T10:30:20.880Z,101496.05
2019-04-05T10:32:52.307Z,101500.05
2019-04-05T10:35:23.697Z,101492.13
2019-04-05T10:40:39.713Z,101484.52
2019-04-05T10:43:11.809Z,101480.73
2019-04-05T10:45:43.347Z,101480.83
2019-04-05T10:48:14.793Z,101482.58
2019-04-05T10:50:46.310Z,101485.62
2019-04-05T10:53:26.736Z,101481.31
2019-04-05T10:55:59.042Z,101475.22
2019-04-05T10:58:30.423Z,101480.50
2019-04-05T11:01:01.850Z,101475.70
2019-04-05T11:03:33.303Z,101469.77
2019-04-05T11:06:04.813Z,101470.05
2019-04-05T11:08:36.177Z,101464.73
2019-04-05T11:11:07.856Z,101473.66
2019-04-05T11:13:41.429Z,101471.06
2019-04-05T11:16:12.915Z,101471.27
2019-04-05T11:18:45.180Z,101472.52
2019-04-05T11:21:22.165Z,101465.17
2019-04-05T11:23:57.455Z,101470.07
2019-04-05T11:26:30.509Z,101466.24
2019-04-05T11:29:01.946Z,101463.83
2019-04-05T11:31:33.356Z,101455.41
2019-04-05T11:34:04.760Z,101454.30
2019-04-05T11:36:37.175Z,101451.22
2019-04-05T11:39:11.080Z,101447.97
2019-04-05T11:41:42.812Z,101447.41
2019-04-05T11:44:21.588Z,101445.61
2019-04-05T11:46:52.999Z,101442.27
2019-04-05T11:49:24.321Z,101439.03
2019-04-05T11:55:04.565Z,101428.06
2019-04-05T11:57:35.445Z,101428.17
2019-04-05T12:00:35.813Z,101432.77
2019-04-05T12:03:16.236Z,101424.13
2019-04-05T12:05:47.672Z,101417.25
2019-04-05T12:08:19.110Z,101424.56
2019-04-05T12:10:50.500Z,101422.58
2019-04-05T12:13:21.921Z,101422.47
2019-04-05T12:15:53.400Z,101417.28
2019-04-05T12:18:24.644Z,101419.84
2019-04-05T12:21:00.325Z,101415.73
2019-04-05T12:23:33.380Z,101403.70
2019-04-05T12:26:04.880Z,101408.44
2019-04-05T12:28:37.531Z,101417.39
2019-04-05T12:31:08.923Z,101403.09
2019-04-05T12:33:40.210Z,101396.53
2019-04-05T12:36:11.638Z,101403.72
2019-04-05T12:38:44.848Z,101404.49
2019-04-05T12:41:18.232Z,101407.89
2019-04-05T12:43:51.159Z,101404.66
2019-04-05T12:46:22.435Z,101398.83
2019-04-05T12:48:53.836Z,101399.26
2019-04-05T12:51:25.096Z,101391.88
2019-04-05T12:53:57.377Z,101398.59
2019-04-05T12:56:28.898Z,101397.83
2019-04-05T12:59:00.190Z,101395.80
2019-04-05T13:01:33.628Z,101385.47
2019-04-05T13:04:05.308Z,101395.95
2019-04-05T13:06:36.762Z,101387.04
2019-04-05T13:09:10.008Z,101383.98
2019-04-05T13:11:41.598Z,101383.13
2019-04-05T13:14:14.699Z,101384.14
2019-04-05T13:16:49.315Z,101377.11
2019-04-05T13:19:28.558Z,101375.83
2019-04-05T13:22:02.773Z,101372.09
2019-04-05T13:24:34.861Z,101380.09
2019-04-05T13:27:06.318Z,101376.59
2019-04-05T13:29:37.799Z,101375.27
2019-04-05T13:32:09.247Z,101372.77
2019-04-05T13:34:40.602Z,101372.21
2019-04-05T13:37:20.015Z,101380.84
2019-04-05T13:39:45.107Z,101377.04
2019-04-05T13:42:16.846Z,101381.70
2019-04-05T13:44:48.199Z,101376.22
2019-04-05T13:47:19.589Z,101379.83
2019-04-05T13:49:50.995Z,101380.24
2019-04-05T13:52:22.861Z,101378.48
2019-04-05T13:54:54.352Z,101374.38
2019-04-05T13:57:28.503Z,101378.14
2019-04-05T14:00:00.544Z,101381.18
2019-04-05T14:02:31.993Z,101378.26
2019-04-05T14:05:04.052Z,101374.04
2019-04-05T14:07:38.100Z,101379.91
2019-04-05T14:10:12.448Z,101381.52
2019-04-05T14:12:43.631Z,101379.82
2019-04-05T14:15:15.125Z,101380.14
2019-04-05T14:17:49.388Z,101384.58
2019-04-05T14:20:20.938Z,101386.33
2019-04-05T14:22:52.398Z,101386.49
2019-04-05T14:25:26.085Z,101385.95
2019-04-05T14:27:58.820Z,101386.85
2019-04-05T14:30:32.511Z,101385.09
2019-04-05T14:33:03.422Z,101384.53
2019-04-05T14:35:36.299Z,101384.27
2019-04-05T14:38:07.733Z,101384.47
2019-04-05T14:40:39.143Z,101391.85
2019-04-05T14:43:14.677Z,101389.64
2019-04-05T14:45:45.453Z,101390.08
2019-04-05T14:48:16.750Z,101386.22
2019-04-05T14:50:49.102Z,101390.89
2019-04-05T14:53:20.451Z,101390.50
2019-04-05T14:55:53.031Z,101390.70
2019-04-05T14:58:24.397Z,101386.78
2019-04-05T15:00:55.744Z,101389.84
2019-04-05T15:03:27.330Z,101384.11
2019-04-05T15:06:00.373Z,101385.02
2019-04-05T15:08:33.265Z,101386.16
2019-04-05T15:11:04.979Z,101389.75
2019-04-05T15:13:36.639Z,101387.48
2019-04-05T15:16:11.670Z,101390.48
2019-04-05T15:18:42.895Z,101388.16
2019-04-05T15:21:14.403Z,101393.35
2019-04-05T15:23:46.345Z,101387.48
2019-04-05T15:26:21.546Z,101388.02
2019-04-05T15:28:55.209Z,101387.86
2019-04-05T15:31:27.545Z,101387.38
2019-04-05T15:33:58.920Z,101389.25
2019-04-05T15:36:32.160Z,101387.52
2019-04-05T15:39:05.096Z,101387.61
2019-04-05T15:41:36.744Z,101382.27
2019-04-05T15:44:08.128Z,101383.39
2019-04-05T15:46:40.447Z,101382.44
2019-04-05T15:49:12.814Z,101383.15
2019-04-05T15:51:44.141Z,101379.59
2019-04-05T15:54:15.482Z,101384.66
2019-04-05T15:56:46.898Z,101382.59
2019-04-05T15:59:18.328Z,101382.77
2019-04-05T16:01:49.708Z,101385.17
2019-04-05T16:04:22.837Z,101383.95
2019-04-05T16:06:54.151Z,101388.79
2019-04-05T16:09:25.532Z,101391.39
2019-04-05T16:11:57.101Z,101395.09
2019-04-05T16:14:28.547Z,101391.53
2019-04-05T16:17:01.848Z,101401.94
2019-04-05T16:19:33.364Z,101394.09
2019-04-05T16:22:04.734Z,101398.55
2019-04-05T16:24:39.028Z,101405.48
2019-04-05T16:27:10.267Z,101397.66
2019-04-05T16:29:41.661Z,101403.09
2019-04-05T16:32:13.011Z,101406.61
2019-04-05T16:34:44.329Z,101409.55
2019-04-05T16:37:15.677Z,101407.32
2019-04-05T16:39:46.897Z,101419.27
2019-04-05T16:42:19.253Z,101420.10
2019-04-05T16:44:50.701Z,101422.84
2019-04-05T16:47:22.332Z,101433.21
2019-04-05T16:49:55.232Z,101431.33
2019-04-05T16:52:28.624Z,101435.95
2019-04-05T16:55:01.333Z,101437.32
2019-04-05T16:57:34.019Z,101438.33
2019-04-05T17:00:10.786Z,101439.75
2019-04-05T17:02:42.139Z,101440.91
2019-04-05T17:05:14.116Z,101444.13
2019-04-05T17:07:45.618Z,101456.01
2019-04-05T17:10:16.961Z,101453.91
2019-04-05T17:12:48.273Z,101454.03
2019-04-05T17:15:19.713Z,101451.84
2019-04-05T17:17:51.094Z,101451.91
2019-04-05T17:20:22.401Z,101455.98
2019-04-05T17:22:58.353Z,101452.05
2019-04-05T17:25:27.907Z,101453.73
2019-04-05T17:28:00.360Z,101451.66
2019-04-05T17:30:31.808Z,101453.42
2019-04-05T17:33:03.178Z,101454.80
2019-04-05T17:35:34.645Z,101450.94
2019-04-05T17:38:07.119Z,101454.11
2019-04-05T17:40:38.644Z,101459.51
2019-04-05T17:43:09.993Z,101456.08
2019-04-05T17:45:42.326Z,101461.43
2019-04-05T17:48:19.690Z,101462.48
2019-04-05T17:50:52.689Z,101458.98
2019-04-05T17:53:23.959Z,101456.79
2019-04-05T17:55:59.054Z,101460.84
2019-04-05T17:58:29.806Z,101461.36
2019-04-05T18:01:01.441Z,101457.98
2019-04-05T18:03:32.831Z,101457.16
2019-04-05T18:06:04.249Z,101460.26
2019-04-05T18:08:35.567Z,101455.02
2019-04-05T18:11:07.939Z,101460.77
2019-04-05T18:13:39.222Z,101460.30
2019-04-05T18:16:11.715Z,101459.44
2019-04-05T18:18:43.154Z,101461.26
2019-04-05T18:21:15.059Z,101458.25
2019-04-05T18:23:46.355Z,101465.31
2019-04-05T18:26:19.149Z,101461.40
2019-04-05T18:28:50.486Z,101454.37
2019-04-05T18:31:22.816Z,101463.95
2019-04-05T18:33:54.159Z,101458.83
2019-04-05T18:36:25.533Z,101459.83
2019-04-05T18:38:56.848Z,101461.69
2019-04-05T18:41:28.177Z,101463.38
2019-04-05T18:44:00.418Z,101462.88
2019-04-05T18:46:31.748Z,101459.12
2019-04-05T18:49:03.095Z,101461.27
2019-04-05T18:51:34.491Z,101455.24
2019-04-05T18:54:05.910Z,101461.55
2019-04-05T18:56:38.342Z,101468.31
2019-04-05T18:59:10.778Z,101465.82
2019-04-05T19:01:42.374Z,101463.74
2019-04-05T19:04:15.287Z,101463.33
2019-04-05T19:06:46.599Z,101463.41
2019-04-05T19:09:18.278Z,101467.33
2019-04-05T19:11:49.588Z,101467.22
2019-04-05T19:14:21.868Z,101467.30
2019-04-05T19:16:53.201Z,101463.82
2019-04-05T19:19:24.613Z,101464.80
2019-04-05T19:21:57.369Z,101464.87
2019-04-05T19:24:28.705Z,101467.44
2019-04-05T19:27:00.061Z,101473.56
2019-04-05T19:29:31.602Z,101470.92
2019-04-05T19:49:54.588Z,101471.23
2019-04-05T19:52:25.924Z,101465.01
2019-04-05T19:54:57.335Z,101472.11
2019-04-05T19:57:28.658Z,101474.30
2019-04-05T19:59:59.958Z,101474.71
2019-04-05T20:02:31.276Z,101470.53
2019-04-05T20:05:02.630Z,101475.94
2019-04-05T20:07:34.990Z,101479.56
2019-04-05T20:10:06.482Z,101478.78
2019-04-05T20:12:38.899Z,101476.20
2019-04-05T20:15:10.223Z,101477.52
2019-04-05T20:17:41.557Z,101483.67
2019-04-05T20:20:12.895Z,101479.84
2019-04-05T20:22:45.376Z,101485.17
2019-04-05T20:25:16.729Z,101481.66
2019-04-05T20:27:48.087Z,101484.27
2019-04-05T20:30:21.016Z,101488.70
2019-04-05T20:32:53.426Z,101489.17
2019-04-05T20:35:24.767Z,101489.16
2019-04-05T20:37:56.104Z,101493.14
2019-04-05T20:40:27.424Z,101491.02
2019-04-05T20:42:59.990Z,101494.59
2019-04-05T20:45:31.582Z,101496.36
2019-04-05T20:48:02.904Z,101489.78
2019-04-05T20:50:34.308Z,101495.96
2019-04-05T20:53:06.538Z,101491.14
2019-04-05T20:55:37.870Z,101492.10
2019-04-05T20:58:09.261Z,101492.10
2019-04-05T21:00:43.197Z,101490.39
2019-04-05T21:03:14.479Z,101498.78
2019-04-05T21:05:45.819Z,101499.66
2019-04-05T21:08:17.149Z,101499.67
2019-04-05T21:10:48.480Z,101501.92
2019-04-05T21:13:19.740Z,101500.60
2019-04-05T21:15:50.963Z,101496.77
2019-04-05T21:18:23.319Z,101496.77
2019-04-05T21:20:54.622Z,101499.81
2019-04-05T21:23:25.942Z,101499.81
2019-04-05T21:25:57.234Z,101504.23
2019-04-05T21:28:29.580Z,101495.89
2019-04-05T21:31:00.922Z,101502.06
2019-04-05T21:33:32.215Z,101502.50
2019-04-05T21:36:03.566Z,101505.63
2019-04-05T21:38:35.378Z,101505.63
2019-04-05T21:41:07.789Z,101516.64
2019-04-05T21:43:39.283Z,101514.00
2019-04-05T21:46:12.816Z,101514.93
2019-04-05T21:48:44.337Z,101514.93
2019-04-05T21:51:15.870Z,101514.05
2019-04-05T21:53:47.540Z,101511.41
2019-04-05T21:56:19.083Z,101512.73
2019-04-05T21:58:50.662Z,101509.66
2019-04-05T22:01:23.186Z,101514.05
2019-04-05T22:03:56.332Z,101510.56
2019-04-05T22:06:27.981Z,101516.72
2019-04-05T22:08:59.484Z,101513.64
2019-04-05T22:11:32.565Z,101513.20
2019-04-05T22:14:04.073Z,101512.32
2019-04-05T22:16:35.713Z,101511.90
2019-04-05T22:19:07.507Z,101518.95
2019-04-05T22:21:39.158Z,101508.84
2019-04-05T22:24:10.795Z,101515.86
2019-04-05T22:26:42.345Z,101508.00
2019-04-05T22:29:13.869Z,101510.17
2019-04-05T22:31:45.409Z,101511.95
2019-04-05T22:34:16.945Z,101511.06
2019-04-05T22:36:48.502Z,101505.80
2019-04-05T22:39:21.506Z,101514.16
2019-04-05T22:41:54.349Z,101512.41
2019-04-05T22:44:29.230Z,101515.47
2019-04-05T22:46:59.114Z,101513.73
2019-04-05T22:49:30.689Z,101517.67
2019-04-05T22:52:02.253Z,101522.94
2019-04-05T22:54:34.249Z,101524.69
2019-04-05T22:57:05.793Z,101526.02
2019-04-05T22:59:37.546Z,101514.61
2019-04-05T23:02:10.071Z,101525.12
2019-04-05T23:04:41.587Z,101519.88
2019-04-05T23:07:13.335Z,101522.50
2019-04-05T23:09:44.803Z,101519.41
2019-04-05T23:12:16.442Z,101520.30
2019-04-05T23:14:48.127Z,101518.55
2019-04-05T23:17:19.652Z,101516.78
2019-04-05T23:19:51.211Z,101515.47
2019-04-05T23:22:23.543Z,101511.98
2019-04-05T23:24:55.071Z,101517.23
2019-04-05T23:27:26.530Z,101517.66
2019-04-05T23:29:58.129Z,101519.44
2019-04-05T23:32:29.688Z,101519.84
2019-04-05T23:35:01.181Z,101522.93
2019-04-05T23:37:33.709Z,101520.73
2019-04-05T23:40:06.268Z,101519.42
2019-04-05T23:42:37.801Z,101524.26
2019-04-05T23:45:09.903Z,101522.04
2019-04-05T23:47:41.444Z,101524.23
2019-04-05T23:50:13.160Z,101523.80
2019-04-05T23:52:44.719Z,101520.30
2019-04-05T23:55:17.426Z,101522.06
2019-04-05T23:57:48.984Z,101526.01
